Terminal Aerodrome Forecast
Issued by NWS

Home | Current Version | Previous Version | Text Only | Print | Product List | Glossary On
Versions: 1 2 3 4 5 6 7 8 9 10 11 12 13 14 15 16 17 18 19 20 21 22 23 24 25 26 27 28 29 30 31 32 33 34 35 36
000
FTUS41 KCTP 190554
TAFAOO
TAF
KAOO 190554Z 1906/2006 20005KT P6SM BKN200
     FM190930 16005KT P6SM BKN025
     FM191200 20005KT P6SM OVC018 WS020/21043KT
     FM191600 18010KT 3SM -SHRA BR OVC015 WS020/22043KT
     FM192200 18010KT 4SM BR OVC015 WS020/23042KT=

USA.gov is the U.S. government's official web portal to all federal, state and local government web resources and services.